createdAt,value
2022-10-24T00:02:37.385Z,15.10
2022-10-24T00:05:15.036Z,15.10
2022-10-24T00:07:51.498Z,15.10
2022-10-24T00:10:24.815Z,15.10
2022-10-24T00:12:55.351Z,15.10
2022-10-24T00:15:34.499Z,15.10
2022-10-24T00:21:15.487Z,15.10
2022-10-24T00:23:52.564Z,15.10
2022-10-24T00:26:30.712Z,15.10
2022-10-24T00:29:11.552Z,15.10
2022-10-24T00:32:00.882Z,15.10
2022-10-24T00:34:55.924Z,15.10
2022-10-24T00:38:06.307Z,15.10
2022-10-24T00:40:38.210Z,15.10
2022-10-24T00:46:36.044Z,15.00
2022-10-24T00:49:34.218Z,15.00
2022-10-24T00:52:38.091Z,15.00
2022-10-24T00:55:21.739Z,14.90
2022-10-24T00:58:02.285Z,14.80
2022-10-24T01:00:52.259Z,14.80
2022-10-24T02:03:37.957Z,14.40
2022-10-24T02:06:28.515Z,14.40
2022-10-24T02:09:12.727Z,14.30
2022-10-24T02:12:07.188Z,14.40
2022-10-24T02:15:01.015Z,14.40
2022-10-24T02:17:53.790Z,14.40
2022-10-24T02:20:45.081Z,14.40
2022-10-24T02:23:47.354Z,14.40
2022-10-24T02:26:36.380Z,14.40
2022-10-24T02:29:26.774Z,14.40
2022-10-24T02:32:29.085Z,14.40
2022-10-24T02:35:15.304Z,14.40
2022-10-24T02:38:23.896Z,14.40
2022-10-24T02:41:10.915Z,14.40
2022-10-24T02:43:54.430Z,14.40
2022-10-24T02:46:35.524Z,14.40
2022-10-24T02:49:24.282Z,14.40
2022-10-24T02:52:13.028Z,14.40
2022-10-24T02:54:55.285Z,14.40
2022-10-24T02:57:32.601Z,14.30
2022-10-24T03:00:10.049Z,14.30
2022-10-24T03:02:40.023Z,14.30
2022-10-24T03:05:12.016Z,14.30
2022-10-24T03:07:46.708Z,14.30
2022-10-24T03:10:21.997Z,14.30
2022-10-24T03:13:04.021Z,14.30
2022-10-24T03:15:43.134Z,14.30
2022-10-24T03:18:12.354Z,14.20
2022-10-24T03:20:53.611Z,14.20
2022-10-24T03:23:36.579Z,14.20
2022-10-24T03:26:35.768Z,14.20
2022-10-24T03:29:14.723Z,14.20
2022-10-24T03:32:01.138Z,14.20
2022-10-24T03:34:38.834Z,14.20
2022-10-24T03:37:14.586Z,14.20
2022-10-24T03:39:58.119Z,14.20
2022-10-24T03:42:47.070Z,14.20
2022-10-24T03:52:04.529Z,14.20
2022-10-24T03:55:15.042Z,14.20
2022-10-24T03:58:18.519Z,14.30
2022-10-24T04:00:56.364Z,14.30
2022-10-24T04:03:30.712Z,14.30
2022-10-24T04:05:59.940Z,14.30
2022-10-24T04:11:25.879Z,14.30
2022-10-24T04:13:56.867Z,14.30
2022-10-24T04:16:25.330Z,14.40
2022-10-24T04:18:53.815Z,14.40
2022-10-24T04:21:22.190Z,14.40
2022-10-24T04:23:50.548Z,14.30
2022-10-24T04:26:19.322Z,14.40
2022-10-24T04:28:48.293Z,14.40
2022-10-24T04:31:22.463Z,14.40
2022-10-24T04:33:52.345Z,14.40
2022-10-24T04:36:35.438Z,14.40
2022-10-24T04:39:04.449Z,14.50
2022-10-24T04:41:32.980Z,14.40
2022-10-24T04:44:01.503Z,14.50
2022-10-24T04:46:32.173Z,14.50
2022-10-24T04:49:00.857Z,14.50
2022-10-24T04:51:29.581Z,14.50
2022-10-24T04:53:58.082Z,14.50
2022-10-24T04:56:27.308Z,14.50
2022-10-24T04:58:56.711Z,14.50
2022-10-24T05:01:25.410Z,14.50
2022-10-24T05:03:55.360Z,14.50
2022-10-24T05:06:23.875Z,14.50
2022-10-24T05:08:52.501Z,14.50
2022-10-24T05:11:21.632Z,14.50
2022-10-24T05:13:50.159Z,14.50
2022-10-24T05:16:19.019Z,14.50
2022-10-24T05:18:47.483Z,14.50
2022-10-24T05:21:17.454Z,14.50
2022-10-24T05:23:45.956Z,14.50
2022-10-24T05:26:14.771Z,14.50
2022-10-24T05:28:43.288Z,14.50
2022-10-24T05:31:11.803Z,14.50
2022-10-24T05:33:40.245Z,14.50
2022-10-24T05:36:09.934Z,14.50
2022-10-24T05:38:39.805Z,14.50
2022-10-24T05:41:08.349Z,14.50
2022-10-24T05:43:36.931Z,14.50
2022-10-24T21:30:58.026Z,13.80
2022-10-24T21:33:26.537Z,13.70
2022-10-24T21:35:55.230Z,13.70
2022-10-24T21:38:23.778Z,13.70
2022-10-24T21:40:52.512Z,13.70
2022-10-24T21:43:21.131Z,13.70
2022-10-24T21:45:49.871Z,13.70
2022-10-24T21:48:23.851Z,13.70
2022-10-24T21:50:52.862Z,13.70
2022-10-24T21:53:21.506Z,13.70
2022-10-24T21:55:50.368Z,13.60
2022-10-24T21:58:18.977Z,13.60
2022-10-24T22:00:47.416Z,13.60
2022-10-24T22:03:16.070Z,13.60
2022-10-24T22:05:56.213Z,13.60
2022-10-24T22:11:09.171Z,13.60
2022-10-24T22:13:38.168Z,13.60
2022-10-24T22:16:08.023Z,13.60
2022-10-24T22:18:36.803Z,13.50
2022-10-24T22:21:09.933Z,13.50
2022-10-24T22:23:38.690Z,13.50
2022-10-24T22:26:07.279Z,13.50
2022-10-24T22:28:35.845Z,13.50
2022-10-24T22:31:05.470Z,13.50
2022-10-24T22:33:36.474Z,13.50
2022-10-24T22:36:13.295Z,13.50
2022-10-24T22:38:42.206Z,13.50
2022-10-24T22:41:11.739Z,13.50
2022-10-24T22:43:40.857Z,13.50
2022-10-24T22:46:24.274Z,13.40
2022-10-24T22:48:57.944Z,13.40
2022-10-24T22:51:28.905Z,13.40
2022-10-24T22:53:58.544Z,13.40
2022-10-24T22:56:33.294Z,13.40
2022-10-24T22:59:02.365Z,13.40
2022-10-24T23:01:41.522Z,13.40
2022-10-24T23:04:21.465Z,13.40
2022-10-24T23:06:56.527Z,13.40
2022-10-24T23:09:25.100Z,13.40
2022-10-24T23:11:54.257Z,13.40
2022-10-24T23:14:23.778Z,13.40
2022-10-24T23:16:58.316Z,13.40
2022-10-24T23:19:29.626Z,13.30
2022-10-24T23:22:03.988Z,13.40
2022-10-24T23:24:33.458Z,13.30
2022-10-24T23:27:22.675Z,13.30
2022-10-24T23:29:52.477Z,13.30
2022-10-24T23:32:24.277Z,13.30
2022-10-24T23:34:54.863Z,13.30
2022-10-24T23:37:33.044Z,13.30
2022-10-24T23:40:03.802Z,13.30
2022-10-24T23:42:33.411Z,13.30
2022-10-24T23:45:04.237Z,13.30
2022-10-24T23:47:54.340Z,13.30
2022-10-24T23:50:29.292Z,13.30
2022-10-24T23:53:13.038Z,13.30
2022-10-24T23:55:42.739Z,13.30
2022-10-24T23:58:12.867Z,13.30
